Nearby METAR Reports

 

KSJC - San Jose, California, USA
Distance from station: NE 9mi, 14km
Updated: Sat, 26-Jul-2014 1:53am PDT
Clear
Clear
 Wind from SE
Wind: SE 5 mph , 7 km/h
Temperature: 70°F , 21°C
Dew Point: 48°F , 9°C
Humidity: 46%
Barometer: 29.88 inHg , 1011.9 hPa
Clouds: Clear
Visibility: 10 miles , 16 km
2014/07/26 08:53 KSJC 260853Z AUTO 13004KT 10SM CLR 21/09 A2988 RMK AO2 SLP116 T02060094 57001
KNUQ - Moffett Nas/Mtn, California, USA
Distance from station: N 9mi, 14km
Updated: Sat, 26-Jul-2014 1:56am PDT
Clear
Clear
 Wind from WNW
Wind: WNW 3 mph , 6 km/h
Temperature: 66°F , 19°C
Dew Point: 61°F , 16°C
Humidity: 83%
Barometer: 29.89 inHg , 1012.2 hPa
Clouds: Clear
Visibility: 10 miles , 16 km
2014/07/26 08:56 KNUQ 260856Z AUTO 30003KT 10SM CLR 19/16 A2989 RMK AO2 SLP123 T01940156 52001 TSNO
 
KPAO - Palo Alto, California, USA
Distance from station: NNW 14mi, 23km
Updated: Fri, 25-Jul-2014 8:47pm PDT
NOT Current
Clear
Clear
 Wind from NNW
Wind: NNW 15 mph , 24 km/h
Temperature: 72°F , 22°C
Dew Point: 57°F , 14°C
Humidity: 61%
Barometer: 29.85 inHg , 1010.8 hPa
Clouds: Clear
Visibility: 30 miles , 48 km
2014/07/26 03:47 KPAO 260347Z 34013KT 30SM SKC 22/14 A2985 RMK LAST
KRHV - San Jose/Reid, California, USA
Distance from station: ENE 12mi, 19km
Updated: Fri, 25-Jul-2014 9:51pm PDT
NOT Current
Clear
Clear
 Wind from calm
Wind: Calm
Temperature: 81°F , 27°C
Dew Point: 52°F , 11°C
Humidity: 37%
Barometer: 29.90 inHg , 1012.5 hPa
Clouds: Clear
Visibility: 10 miles , 16 km
2014/07/26 04:51 KRHV 260451Z 00000KT 10SM SKC 27/11 A2990 RMK LAST
 
KOAK - Oakland, California, USA
Distance from station: NNW 31mi, 50km
Updated: Sat, 26-Jul-2014 1:53am PDT
Clear
Clear
 Wind from NW
Wind: NW 5 mph , 7 km/h
Temperature: 64°F , 18°C
Dew Point: 55°F , 13°C
Humidity: 73%
Barometer: 29.88 inHg , 1011.9 hPa
Clouds: Clear
Visibility: 10 miles , 16 km
2014/07/26 08:53 KOAK 260853Z 32004KT 10SM CLR 18/13 A2988 RMK AO2 SLP118 T01780133 50001
KSQL - San Carlos Airpo, California, USA
Distance from station: NW 21mi, 34km
Updated: Sat, 26-Jul-2014 1:55am PDT
Clear
Clear
 Wind from NW
Wind: NW 5 mph , 7 km/h
Temperature: 66°F , 19°C
Dew Point: 55°F , 13°C
Humidity: 68%
Barometer: 29.89 inHg , 1012.2 hPa
Clouds: Clear
Visibility: 10 miles , 16 km
2014/07/26 08:55 KSQL 260855Z AUTO 31004KT 10SM CLR 19/13 A2989 RMK AO2
 
KSFO - San Francisco, California, USA
Distance from station: NW 30mi, 49km
Updated: Sat, 26-Jul-2014 1:56am PDT
Clear
Clear
 Wind from WNW
Wind: WNW 8 mph , 13 km/h
Temperature: 64°F , 18°C
Dew Point: 57°F , 14°C
Humidity: 78%
Barometer: 29.88 inHg , 1011.9 hPa
Clouds: Clear
Visibility: 10 miles , 16 km
2014/07/26 08:56 KSFO 260856Z 30007KT 10SM CLR 18/14 A2988 RMK AO2 SLP119 T01780139 50001 $
KE16 - San Martin, California, USA
Distance from station: ESE 27mi, 43km
Updated: Sat, 26-Jul-2014 1:55am PDT
Clear
Clear
 Wind from calm
Wind: Calm
Temperature: 63°F , 17°C
Dew Point: 52°F , 11°C
Humidity: 68%
Barometer: 29.93 inHg , 1013.5 hPa
Clouds: Clear
Visibility: 10 miles , 16 km
2014/07/26 08:55 KE16 260855Z AUTO 00000KT 10SM CLR 17/11 A2993 RMK AO2
 
KWVI - Watsonville, California, USA
Distance from station: SSE 27mi, 44km
Updated: Sat, 26-Jul-2014 1:53am PDT
Clear
Clear
 Wind from calm
Wind: Calm
Temperature: 57°F , 14°C
Dew Point: 54°F , 12°C
Humidity: 88%
Barometer: 29.92 inHg , 1013.2 hPa
Clouds: Clear
Visibility: 7 miles , 11 km
2014/07/26 08:53 KWVI 260853Z AUTO 00000KT 7SM CLR 14/12 A2992 RMK AO2 SLP130 T01440122 56001
KHAF - Half Moon Bay, California, USA
Distance from station: WNW 31mi, 50km
Updated: Sat, 26-Jul-2014 1:55am PDT
Mist, Mostly cloudy
Mist, Mostly cloudy
 Wind from calm
Wind: Calm
Temperature: 52°F , 11°C
Dew Point: 50°F , 10°C
Humidity: 94%
Barometer: 29.92 inHg , 1013.2 hPa
Summary: Mist
Clouds: Mostly cloudy
Visibility: 5 miles , 8 km
Cloud details: Mostly cloudy 300 ft
2014/07/26 08:55 KHAF 260855Z AUTO 00000KT 5SM BR BKN003 11/10 A2992 RMK AO2
 
KHWD - Hayward, California, USA
Distance from station: N 28mi, 44km
Updated: Sat, 26-Jul-2014 1:54am PDT
Clear
Clear
 Wind from NW
Wind: NW 3 mph , 6 km/h
Temperature: 64°F , 18°C
Dew Point: 61°F , 16°C
Humidity: 88%
Barometer: 29.87 inHg , 1011.5 hPa
Clouds: Clear
Visibility: 10 miles , 16 km
2014/07/26 08:54 KHWD 260854Z 32003KT 10SM CLR 18/16 A2987 RMK AO2 SLP125 T01780156 50001
KLVK - Livermore, California, USA
Distance from station: NNE 31mi, 51km
Updated: Sat, 26-Jul-2014 1:53am PDT
Clear
Clear
 Wind from calm
Wind: Calm
Temperature: 73°F , 23°C
Dew Point: 48°F , 9°C
Humidity: 41%
Barometer: 29.86 inHg , 1011.2 hPa
Clouds: Clear
Visibility: 10 miles , 16 km
2014/07/26 08:53 KLVK 260853Z AUTO 00000KT 10SM CLR 23/09 A2986 RMK AO2 SLP107 T02280089 58001